createdAt,value
2022-11-23T00:01:33.043Z,0.90
2022-11-23T00:04:02.977Z,0.60
2022-11-23T00:06:31.606Z,0.70
2022-11-23T00:08:59.219Z,0.63
2022-11-23T00:11:27.435Z,0.50
2022-11-23T00:13:55.476Z,0.70
2022-11-23T00:16:24.117Z,0.73
2022-11-23T00:18:55.290Z,0.43
2022-11-23T00:21:25.582Z,0.60
2022-11-23T00:23:53.083Z,0.40
2022-11-23T00:26:20.684Z,0.63
2022-11-23T00:28:48.091Z,0.50
2022-11-23T00:31:16.419Z,0.50
2022-11-23T00:33:44.198Z,0.60
2022-11-23T00:36:15.722Z,0.50
2022-11-23T00:38:44.092Z,0.77
2022-11-23T00:41:13.145Z,0.50
2022-11-23T00:43:40.437Z,0.60
2022-11-23T00:46:18.369Z,0.53
2022-11-23T00:48:46.632Z,0.70
2022-11-23T00:51:17.755Z,0.50
2022-11-23T00:53:45.544Z,0.70
2022-11-23T00:56:13.225Z,0.90
2022-11-23T00:58:40.695Z,0.50
2022-11-23T01:01:15.259Z,0.50
2022-11-23T01:03:43.648Z,0.60
2022-11-23T01:06:15.373Z,0.40
2022-11-23T01:08:43.100Z,0.50
2022-11-23T01:11:12.084Z,0.60
2022-11-23T01:13:40.923Z,0.43
2022-11-23T01:16:10.732Z,0.40
2022-11-23T01:18:39.078Z,0.50
2022-11-23T01:21:06.472Z,0.40
2022-11-23T01:23:33.897Z,0.50
2022-11-23T01:26:11.069Z,0.70
2022-11-23T01:28:39.381Z,0.90
2022-11-23T01:31:12.077Z,0.60
2022-11-23T01:33:39.911Z,0.63
2022-11-23T01:36:14.190Z,0.80
2022-11-23T01:38:41.974Z,0.57
2022-11-23T01:41:10.444Z,0.63
2022-11-23T01:43:37.742Z,0.40
2022-11-23T01:46:05.579Z,0.40
2022-11-23T01:48:44.946Z,0.40
2022-11-23T01:51:15.114Z,0.50
2022-11-23T01:53:43.097Z,0.47
2022-11-23T01:56:13.938Z,0.50
2022-11-23T01:58:43.610Z,0.50
2022-11-23T02:01:10.991Z,0.37
2022-11-23T02:03:38.417Z,0.40
2022-11-23T02:06:08.783Z,0.50
2022-11-23T02:08:37.633Z,0.40
2022-11-23T02:11:05.094Z,0.60
2022-11-23T02:13:32.650Z,0.60
2022-11-23T02:16:00.081Z,0.40
2022-11-23T02:18:29.614Z,0.40
2022-11-23T02:20:57.996Z,0.53
2022-11-23T02:23:43.694Z,0.50
2022-11-23T02:26:13.984Z,0.37
2022-11-23T02:28:44.146Z,0.60
2022-11-23T02:31:11.610Z,0.50
2022-11-23T02:33:39.466Z,0.40
2022-11-23T02:36:42.430Z,0.50
2022-11-23T02:39:13.012Z,0.30
2022-11-23T02:41:48.716Z,0.50
2022-11-23T02:44:21.359Z,0.60
2022-11-23T02:46:48.780Z,0.30
2022-11-23T02:49:16.120Z,0.60
2022-11-23T02:51:43.464Z,0.40
2022-11-23T02:54:10.830Z,0.33
2022-11-23T02:56:38.109Z,0.53
2022-11-23T02:59:05.407Z,0.50
2022-11-23T03:01:32.804Z,0.77
2022-11-23T03:04:00.223Z,0.30
2022-11-23T03:06:27.516Z,0.50
2022-11-23T03:08:54.792Z,0.47
2022-11-23T03:11:22.116Z,0.50
2022-11-23T03:13:49.480Z,0.40
2022-11-23T03:16:16.872Z,0.50
2022-11-23T03:18:44.361Z,0.30
2022-11-23T03:21:11.718Z,0.40
2022-11-23T03:23:39.067Z,0.30
2022-11-23T03:26:12.546Z,0.40
2022-11-23T03:28:40.353Z,0.30
2022-11-23T03:31:07.758Z,0.30
2022-11-23T03:33:35.328Z,0.30
2022-11-23T03:36:02.695Z,0.40
2022-11-23T03:38:30.022Z,0.33
2022-11-23T03:40:57.292Z,0.50
2022-11-23T03:43:24.987Z,0.30
2022-11-23T03:45:52.268Z,0.40
2022-11-23T03:48:19.672Z,0.40
2022-11-23T03:50:47.070Z,0.40
2022-11-23T03:53:14.400Z,0.50
2022-11-23T03:55:41.867Z,0.30
2022-11-23T03:58:09.142Z,0.50
2022-11-23T04:00:36.759Z,0.40
2022-11-23T04:03:04.511Z,0.30
2022-11-23T04:05:31.884Z,0.40
2022-11-23T04:07:59.354Z,0.30
2022-11-23T04:10:26.688Z,0.40
2022-11-23T04:12:54.256Z,0.40
2022-11-23T04:15:21.584Z,0.53
2022-11-23T04:17:48.940Z,0.50
2022-11-23T04:20:16.423Z,0.47
2022-11-23T04:22:43.776Z,0.30
2022-11-23T04:25:11.519Z,0.40
2022-11-23T04:27:38.978Z,0.27
2022-11-23T04:30:06.691Z,0.30
2022-11-23T04:32:34.081Z,0.40
2022-11-23T04:35:01.540Z,0.30
2022-11-23T04:37:28.987Z,0.37
2022-11-23T04:39:56.240Z,0.40
2022-11-23T04:42:23.578Z,0.30
2022-11-23T04:44:50.908Z,0.30
2022-11-23T04:47:18.222Z,0.50
2022-11-23T04:49:45.677Z,0.50
2022-11-23T04:52:13.112Z,0.40
2022-11-23T04:54:40.511Z,0.40
2022-11-23T04:57:07.815Z,0.30
2022-11-23T04:59:35.163Z,0.43
2022-11-23T05:02:02.609Z,0.30
2022-11-23T05:04:29.905Z,0.40
2022-11-23T05:06:57.326Z,0.53
2022-11-23T05:09:24.652Z,0.50
2022-11-23T05:11:52.073Z,0.50
2022-11-23T05:14:19.418Z,0.50
2022-11-23T05:16:46.833Z,0.60
2022-11-23T05:19:14.137Z,0.70
2022-11-23T05:21:41.541Z,0.33
2022-11-23T05:24:09.025Z,0.30
2022-11-23T05:26:39.126Z,0.40
2022-11-23T05:29:06.595Z,0.50
2022-11-23T05:31:34.089Z,0.43
2022-11-23T05:34:01.329Z,0.60
2022-11-23T05:36:28.663Z,0.47
2022-11-23T05:38:56.027Z,0.40
2022-11-23T05:41:23.377Z,0.60
2022-11-23T05:43:50.751Z,0.63
2022-11-23T05:46:18.895Z,0.50
2022-11-23T05:48:46.181Z,0.43
2022-11-23T05:51:13.566Z,0.53
2022-11-23T05:53:41.018Z,0.47
2022-11-23T05:56:08.475Z,0.50
2022-11-23T05:58:38.270Z,0.30
2022-11-23T06:01:05.758Z,0.70
2022-11-23T06:03:33.226Z,0.33
2022-11-23T06:06:00.622Z,0.90
2022-11-23T06:08:27.896Z,0.83
2022-11-23T06:10:55.200Z,0.33
2022-11-23T06:13:22.516Z,0.67
2022-11-23T06:15:49.869Z,0.60
2022-11-23T06:18:17.311Z,0.47
2022-11-23T06:20:44.671Z,0.43
2022-11-23T06:23:11.996Z,0.70
2022-11-23T06:25:39.526Z,0.70
2022-11-23T06:28:07.010Z,0.80
2022-11-23T06:30:34.352Z,1.13
2022-11-23T06:33:04.831Z,0.70
2022-11-23T06:35:32.413Z,0.97
2022-11-23T06:37:59.772Z,0.90
2022-11-23T06:40:27.459Z,0.90
2022-11-23T06:42:59.147Z,0.60
2022-11-23T06:45:27.424Z,0.53
2022-11-23T06:47:57.864Z,0.50
2022-11-23T06:50:25.246Z,0.70
2022-11-23T06:52:58.979Z,0.90
2022-11-23T06:55:26.804Z,1.40
2022-11-23T06:57:54.316Z,1.10
2022-11-23T07:00:21.793Z,0.83
2022-11-23T07:02:53.121Z,0.87
2022-11-23T07:05:20.555Z,1.00
2022-11-23T07:07:47.964Z,0.93
2022-11-23T07:10:15.820Z,1.40
2022-11-23T07:12:43.247Z,2.23
2022-11-23T07:15:10.842Z,1.33
2022-11-23T07:17:41.303Z,1.30
2022-11-23T07:20:11.885Z,1.37
2022-11-23T07:22:43.703Z,1.40
2022-11-23T07:25:16.444Z,1.53
2022-11-23T07:27:43.817Z,1.97
2022-11-23T07:30:11.726Z,1.30
2022-11-23T07:32:39.175Z,1.00
2022-11-23T07:35:06.776Z,0.70
2022-11-23T07:37:34.072Z,0.90
2022-11-23T07:40:01.710Z,0.90
2022-11-23T07:42:35.573Z,0.80
2022-11-23T07:45:08.137Z,0.80
2022-11-23T07:47:35.636Z,1.30
2022-11-23T07:50:03.008Z,1.50
2022-11-23T07:52:30.330Z,1.40
2022-11-23T07:54:57.712Z,1.03
2022-11-23T07:57:25.091Z,0.80
2022-11-23T07:59:52.677Z,0.83
2022-11-23T08:02:20.141Z,0.70
2022-11-23T08:04:47.597Z,0.70
2022-11-23T08:07:15.117Z,0.67
2022-11-23T08:09:42.952Z,0.77
2022-11-23T08:12:10.244Z,1.40
2022-11-23T08:14:37.560Z,1.27
2022-11-23T08:17:05.015Z,1.17
2022-11-23T08:19:32.300Z,0.50
2022-11-23T08:21:59.707Z,0.60
2022-11-23T08:24:27.058Z,0.77
2022-11-23T08:26:54.432Z,1.00
2022-11-23T08:29:21.898Z,0.70
2022-11-23T08:31:49.177Z,0.90
2022-11-23T08:34:18.113Z,0.87
2022-11-23T08:36:45.896Z,0.67
2022-11-23T08:39:14.784Z,0.47
2022-11-23T08:41:42.396Z,0.93
2022-11-23T08:44:11.431Z,0.77
2022-11-23T08:46:39.060Z,0.77
2022-11-23T08:49:07.225Z,1.23
2022-11-23T08:51:34.914Z,1.00
2022-11-23T08:54:02.245Z,1.40
2022-11-23T08:56:29.634Z,0.97
2022-11-23T08:58:57.050Z,1.13
2022-11-23T09:01:24.588Z,1.10
2022-11-23T09:03:52.071Z,1.23
2022-11-23T09:06:20.479Z,0.77
2022-11-23T09:08:47.860Z,0.80
2022-11-23T09:11:15.324Z,1.10
2022-11-23T09:13:45.063Z,0.50
2022-11-23T09:16:16.888Z,0.70
2022-11-23T09:18:54.049Z,1.20
2022-11-23T09:21:57.028Z,1.40
2022-11-23T09:24:28.563Z,1.00
2022-11-23T09:26:59.741Z,1.37
2022-11-23T09:29:29.392Z,0.80
2022-11-23T09:31:59.051Z,1.00
2022-11-23T09:35:13.628Z,1.07
2022-11-23T09:37:43.484Z,0.83
2022-11-23T09:40:21.746Z,1.00
2022-11-23T09:43:20.262Z,1.20
2022-11-23T09:45:53.407Z,1.23
2022-11-23T09:52:40.113Z,1.40
2022-11-23T09:56:09.349Z,1.40
2022-11-23T10:02:48.124Z,1.47
2022-11-23T10:05:39.742Z,1.77
2022-11-23T10:08:40.155Z,1.40
2022-11-23T10:15:17.136Z,1.93
2022-11-23T10:17:52.477Z,1.87
2022-11-23T10:20:34.511Z,1.20
2022-11-23T10:23:04.119Z,1.20
2022-11-23T10:25:41.887Z,1.20
2022-11-23T10:28:39.097Z,1.63
2022-11-23T10:31:27.029Z,2.10
2022-11-23T10:34:03.003Z,1.50
2022-11-23T10:36:32.516Z,1.60
2022-11-23T10:39:02.218Z,1.50
2022-11-23T10:41:37.223Z,1.23
2022-11-23T10:44:10.040Z,1.00
2022-11-23T10:46:41.649Z,0.97
2022-11-23T10:49:23.403Z,1.30
2022-11-23T10:52:29.040Z,1.10
2022-11-23T10:55:49.306Z,1.20
2022-11-23T11:02:19.720Z,1.43
2022-11-23T11:04:48.137Z,1.00
2022-11-23T11:07:22.554Z,0.63
2022-11-23T11:09:57.648Z,0.50
2022-11-23T11:12:26.295Z,0.50
2022-11-23T11:15:05.294Z,0.40
2022-11-23T11:17:39.790Z,0.73
2022-11-23T11:20:25.295Z,0.60
2022-11-23T11:22:52.872Z,0.30
2022-11-23T11:25:37.690Z,0.30
2022-11-23T11:28:06.563Z,0.30
2022-11-23T11:30:41.127Z,0.57
2022-11-23T11:33:46.600Z,0.40
2022-11-23T11:36:14.567Z,0.60
2022-11-23T11:38:48.589Z,0.20
2022-11-23T11:41:29.633Z,0.60
2022-11-23T11:44:05.580Z,0.20
2022-11-23T11:46:38.983Z,0.30
2022-11-23T11:49:15.362Z,0.23
2022-11-23T11:51:44.687Z,0.50
2022-11-23T11:54:11.999Z,0.23
2022-11-23T11:56:41.323Z,0.30
2022-11-23T11:59:14.360Z,0.40
2022-11-23T12:01:56.846Z,0.50
2022-11-23T12:04:32.514Z,0.30
2022-11-23T12:07:06.709Z,0.50
2022-11-23T12:09:38.016Z,0.50
2022-11-23T12:12:06.972Z,0.20
2022-11-23T12:14:34.635Z,0.50
2022-11-23T12:17:31.895Z,0.33
2022-11-23T12:20:14.265Z,0.20
2022-11-23T12:22:50.380Z,0.10
2022-11-23T12:25:33.419Z,0.20
2022-11-23T12:28:00.811Z,0.20
2022-11-23T12:30:50.060Z,0.23
2022-11-23T12:33:30.218Z,0.40
2022-11-23T12:35:57.626Z,0.20
2022-11-23T12:38:27.939Z,0.20
2022-11-23T12:41:18.666Z,0.10
2022-11-23T12:43:45.932Z,0.20
2022-11-23T12:46:28.772Z,0.13
2022-11-23T12:49:14.455Z,0.10
2022-11-23T12:51:41.801Z,0.30
2022-11-23T12:54:21.425Z,0.20
2022-11-23T12:57:05.770Z,0.50
2022-11-23T12:59:44.742Z,0.20
2022-11-23T13:02:30.652Z,0.30
2022-11-23T13:05:00.626Z,0.30
2022-11-23T13:07:49.324Z,0.33
2022-11-23T13:10:21.783Z,0.30
2022-11-23T13:12:55.139Z,0.23
2022-11-23T13:15:25.118Z,0.50
2022-11-23T13:18:07.329Z,0.40
2022-11-23T13:20:40.660Z,0.60
2022-11-23T13:23:08.295Z,0.60
2022-11-23T13:25:35.592Z,0.60
2022-11-23T13:28:04.932Z,0.30
2022-11-23T13:31:13.924Z,0.50
2022-11-23T13:33:34.248Z,0.40
2022-11-23T13:36:11.230Z,0.70
2022-11-23T13:38:44.848Z,0.50
2022-11-23T13:41:33.482Z,0.80
2022-11-23T13:44:19.834Z,0.60
2022-11-23T13:47:02.134Z,0.50
2022-11-23T13:49:32.315Z,0.60
2022-11-23T13:52:17.597Z,0.90
2022-11-23T13:54:54.754Z,1.10
2022-11-23T13:57:22.370Z,1.20
2022-11-23T13:59:49.837Z,1.20
2022-11-23T14:02:30.676Z,0.97
2022-11-23T14:05:16.681Z,1.20
2022-11-23T14:07:46.566Z,1.37
2022-11-23T14:10:23.678Z,0.70
2022-11-23T14:12:55.481Z,1.30
2022-11-23T14:15:27.323Z,0.80
2022-11-23T14:17:54.693Z,0.87
2022-11-23T14:20:25.402Z,0.87
2022-11-23T14:23:02.124Z,0.80
2022-11-23T14:25:29.444Z,0.60
2022-11-23T14:28:19.926Z,0.53
2022-11-23T14:30:58.879Z,0.63
2022-11-23T14:33:41.608Z,0.67
2022-11-23T14:36:27.245Z,1.00
2022-11-23T14:39:13.643Z,1.27
2022-11-23T14:41:42.589Z,2.40
2022-11-23T14:44:13.164Z,2.60
2022-11-23T14:47:00.679Z,1.63
2022-11-23T14:49:28.288Z,1.90
2022-11-23T14:51:55.722Z,1.40
2022-11-23T14:54:23.641Z,1.47
2022-11-23T14:56:52.074Z,0.60
2022-11-23T14:59:29.774Z,0.63
2022-11-23T15:01:58.600Z,0.50
2022-11-23T15:04:35.362Z,0.53
2022-11-23T15:07:09.379Z,0.40
2022-11-23T15:09:51.566Z,0.50
2022-11-23T15:12:23.128Z,0.73
2022-11-23T15:14:54.849Z,0.90
2022-11-23T15:17:23.320Z,0.30
2022-11-23T15:19:58.133Z,0.70
2022-11-23T15:22:26.882Z,0.60
2022-11-23T15:24:54.559Z,0.80
2022-11-23T15:27:30.922Z,0.60
2022-11-23T15:29:59.641Z,0.30
2022-11-23T15:32:35.170Z,0.30
2022-11-23T15:35:07.106Z,0.27
2022-11-23T15:37:38.086Z,0.37
2022-11-23T15:40:06.722Z,0.33
2022-11-23T15:42:34.165Z,0.53
2022-11-23T15:45:01.565Z,0.50
2022-11-23T15:47:31.141Z,0.70
2022-11-23T15:50:09.244Z,0.50
2022-11-23T15:52:38.483Z,0.67
2022-11-23T15:55:09.752Z,0.60
2022-11-23T15:57:38.002Z,0.80
2022-11-23T16:00:06.279Z,0.60
2022-11-23T16:02:33.868Z,0.80
2022-11-23T16:05:10.687Z,0.83
2022-11-23T16:07:50.477Z,0.97
2022-11-23T16:10:19.320Z,0.90
2022-11-23T16:12:50.048Z,0.90
2022-11-23T16:15:30.922Z,1.33
2022-11-23T16:17:58.403Z,3.23
2022-11-23T16:20:26.249Z,3.27
2022-11-23T16:22:57.249Z,9.63
2022-11-23T16:25:29.565Z,1.50
2022-11-23T16:28:02.805Z,0.90
2022-11-23T16:30:37.699Z,1.30
2022-11-23T16:33:05.721Z,1.83
2022-11-23T16:35:33.479Z,1.70
2022-11-23T16:38:00.883Z,1.73
2022-11-23T16:40:28.202Z,3.20
2022-11-23T16:42:58.441Z,1.50
2022-11-23T16:45:26.082Z,1.50
2022-11-23T16:48:00.281Z,1.60
2022-11-23T16:50:28.725Z,1.00
2022-11-23T16:55:43.708Z,0.70
2022-11-23T16:58:14.451Z,0.70
2022-11-23T17:01:06.928Z,0.50
2022-11-23T17:03:34.282Z,0.67
2022-11-23T17:06:01.563Z,0.60
2022-11-23T17:08:28.963Z,0.73
2022-11-23T17:10:59.162Z,0.50
2022-11-23T17:13:29.099Z,0.30
2022-11-23T17:15:56.881Z,0.37
2022-11-23T17:18:24.241Z,0.30
2022-11-23T17:20:51.558Z,0.50
2022-11-23T17:23:19.006Z,0.70
2022-11-23T17:25:46.319Z,0.80
2022-11-23T17:28:21.204Z,0.60
2022-11-23T17:30:48.803Z,0.90
2022-11-23T17:33:16.164Z,0.40
2022-11-23T17:35:43.445Z,0.60
2022-11-23T17:38:14.402Z,0.47
2022-11-23T17:40:42.202Z,0.60
2022-11-23T17:43:14.364Z,0.60
2022-11-23T17:45:42.408Z,0.50
2022-11-23T17:48:13.733Z,0.50
2022-11-23T17:50:41.122Z,0.80
2022-11-23T17:53:10.083Z,0.90
2022-11-23T17:55:37.764Z,1.00
2022-11-23T17:58:05.321Z,1.00
2022-11-23T18:00:33.040Z,1.20
2022-11-23T18:03:00.403Z,1.67
2022-11-23T18:05:27.829Z,1.23
2022-11-23T18:07:55.206Z,2.33
2022-11-23T18:10:22.890Z,2.60
2022-11-23T18:12:50.243Z,1.60
2022-11-23T18:15:17.604Z,1.80
2022-11-23T18:17:44.979Z,1.40
2022-11-23T18:20:13.229Z,2.70
2022-11-23T18:22:40.575Z,2.60
2022-11-23T18:25:08.087Z,3.23
2022-11-23T18:27:35.641Z,1.87
2022-11-23T18:30:03.123Z,2.70
2022-11-23T18:32:30.522Z,1.80
2022-11-23T18:35:00.725Z,2.23
2022-11-23T18:37:28.043Z,2.90
2022-11-23T18:39:55.402Z,1.97
2022-11-23T18:42:23.360Z,2.50
2022-11-23T18:44:50.722Z,2.37
2022-11-23T18:47:17.961Z,2.07
2022-11-23T18:49:45.325Z,2.10
2022-11-23T18:52:13.964Z,1.53
2022-11-23T18:54:41.363Z,1.63
2022-11-23T18:57:08.725Z,1.60
2022-11-23T19:02:23.881Z,1.93
2022-11-23T19:04:51.475Z,1.80
2022-11-23T19:07:25.124Z,2.20
2022-11-23T19:09:54.011Z,2.10
2022-11-23T19:12:21.349Z,2.30
2022-11-23T19:14:49.961Z,2.03
2022-11-23T19:17:17.683Z,2.27
2022-11-23T19:19:45.042Z,2.30
2022-11-23T19:22:12.359Z,2.50
2022-11-23T19:24:40.445Z,2.00
2022-11-23T19:27:07.919Z,2.10
2022-11-23T19:29:35.596Z,2.13
2022-11-23T19:32:03.270Z,2.20
2022-11-23T19:34:30.724Z,1.97
2022-11-23T19:36:58.363Z,2.00
2022-11-23T19:39:25.718Z,1.90
2022-11-23T19:41:53.283Z,1.70
2022-11-23T19:44:20.762Z,1.80
2022-11-23T19:46:48.297Z,1.90
2022-11-23T19:49:15.803Z,1.80
2022-11-23T19:51:43.366Z,1.90
2022-11-23T19:54:10.684Z,2.27
2022-11-23T19:56:38.122Z,1.57
2022-11-23T19:59:05.643Z,1.60
2022-11-23T20:01:33.314Z,1.50
2022-11-23T20:04:09.527Z,1.60
2022-11-23T20:06:38.159Z,1.80
2022-11-23T20:09:07.801Z,1.90
2022-11-23T20:11:36.038Z,2.00
2022-11-23T20:14:03.685Z,1.83
2022-11-23T20:16:31.928Z,2.17
2022-11-23T20:19:03.243Z,2.37
2022-11-23T20:21:31.042Z,2.17
2022-11-23T20:24:05.514Z,2.57
2022-11-23T20:26:34.202Z,1.63
2022-11-23T20:29:01.921Z,1.70
2022-11-23T20:31:30.249Z,1.80
2022-11-23T20:33:58.002Z,2.20
2022-11-23T20:36:26.400Z,2.07
2022-11-23T20:38:54.322Z,2.73
2022-11-23T20:41:24.640Z,2.60
2022-11-23T20:43:54.162Z,2.40
2022-11-23T20:46:45.538Z,2.63
2022-11-23T20:49:09.508Z,2.47
2022-11-23T20:51:37.014Z,2.37
2022-11-23T20:54:04.565Z,2.50
2022-11-23T20:56:32.413Z,2.47
2022-11-23T20:59:04.879Z,2.23
2022-11-23T21:01:32.831Z,2.60
2022-11-23T21:04:00.712Z,2.20
2022-11-23T21:06:28.534Z,2.10
2022-11-23T21:08:56.169Z,2.10
2022-11-23T21:11:43.164Z,1.70
2022-11-23T21:14:18.652Z,2.30
2022-11-23T21:16:53.093Z,2.13
2022-11-23T21:19:22.042Z,2.40
2022-11-23T21:21:49.428Z,2.30
2022-11-23T21:24:17.087Z,2.03
2022-11-23T21:26:44.364Z,2.20
2022-11-23T21:29:11.763Z,1.87
2022-11-23T21:31:39.824Z,2.00
2022-11-23T21:34:10.672Z,2.53
2022-11-23T21:36:39.841Z,2.50
2022-11-23T21:39:08.682Z,2.50
2022-11-23T21:41:36.321Z,2.57
2022-11-23T21:44:04.321Z,2.87
2022-11-23T21:46:31.648Z,2.73
2022-11-23T21:48:59.785Z,2.73
2022-11-23T21:51:28.761Z,2.60
2022-11-23T21:53:57.080Z,2.50
2022-11-23T21:56:25.123Z,2.40
2022-11-23T21:58:52.684Z,2.90
2022-11-23T22:01:20.206Z,2.47
2022-11-23T22:03:51.761Z,2.50
2022-11-23T22:06:20.912Z,2.80
2022-11-23T22:08:52.678Z,2.33
2022-11-23T22:11:27.121Z,2.63
2022-11-23T22:13:55.643Z,2.47
2022-11-23T22:16:30.743Z,2.70
2022-11-23T22:18:58.444Z,3.10
2022-11-23T22:21:30.402Z,3.50
2022-11-23T22:23:59.123Z,3.73
2022-11-23T22:26:27.874Z,3.53
2022-11-23T22:28:55.762Z,4.17
2022-11-23T22:31:24.116Z,3.87
2022-11-23T22:33:52.923Z,3.80
2022-11-23T22:36:21.995Z,4.30
2022-11-23T22:38:49.442Z,4.03
2022-11-23T22:41:17.760Z,4.57
2022-11-23T22:43:45.164Z,4.63
2022-11-23T22:46:13.750Z,4.77
2022-11-23T22:48:41.683Z,4.27
2022-11-23T22:51:10.683Z,3.83
2022-11-23T22:53:45.178Z,3.83
2022-11-23T22:56:15.406Z,4.17
2022-11-23T22:58:43.115Z,3.57
2022-11-23T23:01:15.350Z,4.27
2022-11-23T23:03:43.292Z,3.97
2022-11-23T23:06:16.510Z,3.80
2022-11-23T23:08:44.198Z,4.03
2022-11-23T23:11:11.562Z,4.13
2022-11-23T23:13:38.880Z,3.83
2022-11-23T23:16:11.903Z,3.30
2022-11-23T23:18:39.926Z,3.33
2022-11-23T23:21:11.314Z,2.77
2022-11-23T23:23:42.519Z,3.40
2022-11-23T23:26:10.683Z,3.43
2022-11-23T23:28:38.286Z,3.60
2022-11-23T23:31:10.081Z,3.50
2022-11-23T23:33:37.761Z,3.53
2022-11-23T23:36:15.801Z,3.87
2022-11-23T23:38:43.233Z,3.80
2022-11-23T23:41:11.484Z,3.60
2022-11-23T23:43:39.141Z,3.50
2022-11-23T23:46:07.803Z,4.00
2022-11-23T23:48:36.354Z,3.83
2022-11-23T23:51:09.603Z,3.80
2022-11-23T23:53:37.484Z,3.73
2022-11-23T23:56:06.258Z,3.17
2022-11-23T23:58:33.601Z,3.47
